createdAt,value
2019-01-15T00:00:30.228Z,100531.86
2019-01-15T00:02:58.033Z,100537.97
2019-01-15T00:05:25.683Z,100532.89
2019-01-15T00:07:53.294Z,100529.72
2019-01-15T00:10:20.788Z,100520.64
2019-01-15T00:12:48.302Z,100523.89
2019-01-15T00:15:15.878Z,100528.30
2019-01-15T00:17:43.378Z,100527.20
2019-01-15T00:20:11.099Z,100521.77
2019-01-15T00:22:38.668Z,100523.53
2019-01-15T00:25:06.264Z,100518.08
2019-01-15T00:27:34.153Z,100522.89
2019-01-15T00:30:01.927Z,100526.18
2019-01-15T00:32:29.427Z,100519.64
2019-01-15T00:34:57.135Z,100519.84
2019-01-15T00:37:24.816Z,100521.64
2019-01-15T00:39:52.281Z,100526.27
2019-01-15T00:42:19.739Z,100518.91
2019-01-15T00:44:47.229Z,100521.59
2019-01-15T00:47:14.803Z,100514.33
2019-01-15T00:49:42.260Z,100521.73
2019-01-15T00:52:09.758Z,100522.63
2019-01-15T00:54:37.274Z,100523.87
2019-01-15T00:57:04.789Z,100524.33
2019-01-15T00:59:32.273Z,100515.77
2019-01-15T01:01:59.848Z,100520.58
2019-01-15T01:04:27.274Z,100528.78
2019-01-15T01:06:54.729Z,100516.73
2019-01-15T01:09:22.903Z,100528.22
2019-01-15T01:11:50.393Z,100536.38
2019-01-15T01:14:17.845Z,100535.91
2019-01-15T01:16:45.284Z,100545.26
2019-01-15T01:19:12.708Z,100547.58
2019-01-15T01:21:40.112Z,100546.69
2019-01-15T01:24:07.804Z,100539.48
2019-01-15T01:26:35.233Z,100532.11
2019-01-15T01:29:02.706Z,100524.05
2019-01-15T01:31:30.084Z,100529.19
2019-01-15T01:33:57.528Z,100538.59
2019-01-15T01:36:24.898Z,100545.45
2019-01-15T01:38:52.378Z,100545.91
2019-01-15T01:41:19.773Z,100549.34
2019-01-15T01:43:47.233Z,100544.61
2019-01-15T01:46:14.653Z,100540.77
2019-01-15T01:48:42.193Z,100545.97
2019-01-15T01:51:09.718Z,100549.85
2019-01-15T01:53:37.178Z,100544.48
2019-01-15T01:56:04.727Z,100551.28
2019-01-15T01:58:32.144Z,100544.94
2019-01-15T02:00:59.703Z,100545.72
2019-01-15T02:03:27.168Z,100537.72
2019-01-15T02:05:54.603Z,100540.53
2019-01-15T02:08:22.053Z,100539.98
2019-01-15T02:10:49.433Z,100533.31
2019-01-15T02:13:16.938Z,100531.83
2019-01-15T02:15:44.398Z,100528.31
2019-01-15T02:18:11.913Z,100525.53
2019-01-15T02:20:39.329Z,100521.27
2019-01-15T02:23:06.805Z,100513.03
2019-01-15T02:25:34.337Z,100506.17
2019-01-15T02:28:01.758Z,100517.11
2019-01-15T02:30:29.158Z,100515.39
2019-01-15T02:32:56.594Z,100516.14
2019-01-15T02:35:24.048Z,100512.80
2019-01-15T02:37:51.578Z,100505.39
2019-01-15T02:40:19.080Z,100505.34
2019-01-15T02:42:47.290Z,100499.28
2019-01-15T02:45:17.143Z,100499.10
2019-01-15T02:47:44.570Z,100503.31
2019-01-15T02:50:14.073Z,100503.26
2019-01-15T02:52:41.592Z,100506.96
2019-01-15T02:55:09.816Z,100505.20
2019-01-15T02:57:37.410Z,100503.59
2019-01-15T03:00:09.897Z,100501.00
2019-01-15T03:02:37.338Z,100511.13
2019-01-15T03:05:05.629Z,100505.34
2019-01-15T03:07:33.065Z,100516.93
2019-01-15T03:10:00.527Z,100511.37
2019-01-15T03:12:28.064Z,100510.85
2019-01-15T03:14:55.546Z,100511.05
2019-01-15T03:17:22.978Z,100512.42
2019-01-15T03:19:50.453Z,100514.15
2019-01-15T03:22:17.865Z,100506.00
2019-01-15T03:24:45.343Z,100509.38
2019-01-15T03:27:12.788Z,100506.38
2019-01-15T03:29:40.254Z,100501.91
2019-01-15T03:32:07.658Z,100511.23
2019-01-15T03:34:35.156Z,100509.15
2019-01-15T03:37:02.767Z,100514.74
2019-01-15T03:39:30.233Z,100515.95
2019-01-15T03:41:57.643Z,100515.63
2019-01-15T03:44:25.128Z,100515.12
2019-01-15T03:46:52.543Z,100504.61
2019-01-15T03:49:20.031Z,100507.47
2019-01-15T03:51:47.453Z,100506.09
2019-01-15T03:54:14.938Z,100510.38
2019-01-15T03:56:42.338Z,100503.30
2019-01-15T03:59:09.817Z,100508.48
2019-01-15T04:01:37.285Z,100503.06
2019-01-15T04:04:04.870Z,100497.59
2019-01-15T04:06:32.676Z,100499.78
2019-01-15T04:09:00.213Z,100506.35
2019-01-15T04:11:27.693Z,100504.54
2019-01-15T04:13:55.203Z,100500.97
2019-01-15T04:16:22.640Z,100501.72
2019-01-15T04:18:50.476Z,100506.77
2019-01-15T04:21:18.088Z,100504.12
2019-01-15T04:23:45.496Z,100516.11
2019-01-15T04:26:12.978Z,100512.08
2019-01-15T04:28:40.376Z,100516.16
2019-01-15T04:31:07.833Z,100506.75
2019-01-15T04:33:35.223Z,100508.45
2019-01-15T04:36:02.672Z,100508.36
2019-01-15T04:38:30.143Z,100507.53
2019-01-15T04:40:57.678Z,100494.03
2019-01-15T04:43:25.104Z,100489.59
2019-01-15T04:45:52.584Z,100483.83
2019-01-15T04:48:20.018Z,100476.63
2019-01-15T04:50:47.473Z,100475.78
2019-01-15T04:53:14.864Z,100467.02
2019-01-15T04:55:42.328Z,100474.34
2019-01-15T04:58:09.730Z,100466.61
2019-01-15T05:00:37.268Z,100465.48
2019-01-15T05:03:07.376Z,100467.21
2019-01-15T05:05:34.899Z,100468.83
2019-01-15T05:08:02.310Z,100463.68
2019-01-15T05:10:29.878Z,100466.95
2019-01-15T05:12:57.309Z,100468.17
2019-01-15T05:15:24.838Z,100463.44
2019-01-15T05:17:52.234Z,100462.77
2019-01-15T05:20:19.910Z,100466.36
2019-01-15T05:22:47.426Z,100458.77
2019-01-15T05:25:16.994Z,100454.80
2019-01-15T05:27:44.504Z,100465.50
2019-01-15T05:30:18.048Z,100467.11
2019-01-15T05:32:45.499Z,100461.14
2019-01-15T05:35:13.014Z,100466.12
2019-01-15T05:37:40.494Z,100472.22
2019-01-15T05:40:08.754Z,100464.59
2019-01-15T05:42:36.224Z,100456.43
2019-01-15T05:45:05.208Z,100451.45
2019-01-15T05:47:32.909Z,100443.50
2019-01-15T05:50:00.449Z,100439.77
2019-01-15T05:52:27.998Z,100437.17
2019-01-15T05:54:55.539Z,100432.44
2019-01-15T05:57:23.494Z,100456.05
2019-01-15T05:59:50.923Z,100443.39
2019-01-15T06:02:18.582Z,100433.75
2019-01-15T06:04:46.098Z,100424.29
2019-01-15T06:07:13.568Z,100411.00
2019-01-15T06:09:41.044Z,100400.23
2019-01-15T06:12:08.587Z,100405.19
2019-01-15T06:14:36.014Z,100407.47
2019-01-15T06:17:03.602Z,100405.74
2019-01-15T06:19:31.055Z,100409.23
2019-01-15T06:21:58.513Z,100415.14
2019-01-15T06:24:26.348Z,100409.80
2019-01-15T06:26:53.858Z,100409.48
2019-01-15T06:29:21.268Z,100398.95
2019-01-15T06:31:48.754Z,100398.63
2019-01-15T06:34:16.128Z,100386.11
2019-01-15T06:36:43.780Z,100383.05
2019-01-15T06:39:11.358Z,100385.13
2019-01-15T06:41:38.854Z,100361.22
2019-01-15T06:44:06.476Z,100366.47
2019-01-15T06:46:33.963Z,100364.41
2019-01-15T06:49:01.451Z,100373.66
2019-01-15T06:51:29.279Z,100381.75
2019-01-15T06:53:56.809Z,100385.17
2019-01-15T06:56:24.263Z,100384.94
2019-01-15T06:58:51.749Z,100377.05
2019-01-15T07:01:19.238Z,100370.55
2019-01-15T07:03:46.854Z,100379.35
2019-01-15T07:06:14.288Z,100377.06
2019-01-15T07:08:41.779Z,100373.89
2019-01-15T07:11:10.453Z,100383.30
2019-01-15T07:13:37.913Z,100377.70
2019-01-15T07:16:05.813Z,100382.70
2019-01-15T07:18:33.429Z,100393.00
2019-01-15T07:21:00.903Z,100390.80
2019-01-15T07:23:28.453Z,100392.30
2019-01-15T07:25:55.838Z,100410.56
2019-01-15T07:28:23.279Z,100387.47
2019-01-15T07:30:53.170Z,100398.33
2019-01-15T07:33:25.627Z,100378.23
2019-01-15T07:35:53.118Z,100389.44
2019-01-15T07:38:20.608Z,100386.50
2019-01-15T07:40:48.545Z,100387.73
2019-01-15T07:43:16.119Z,100379.77
2019-01-15T07:45:43.538Z,100380.40
2019-01-15T07:48:11.013Z,100383.37
2019-01-15T07:50:38.484Z,100377.80
2019-01-15T07:53:06.233Z,100373.73
2019-01-15T07:55:33.918Z,100379.53
2019-01-15T07:58:01.411Z,100375.03
2019-01-15T08:00:29.073Z,100380.23
2019-01-15T08:02:56.595Z,100373.56
2019-01-15T08:05:24.183Z,100382.44
2019-01-15T08:07:51.634Z,100375.23
2019-01-15T08:10:19.527Z,100379.06
2019-01-15T08:12:47.257Z,100380.27
2019-01-15T08:15:17.659Z,100382.80
2019-01-15T08:17:58.403Z,100368.39
2019-01-15T08:20:25.834Z,100366.19
2019-01-15T08:22:53.388Z,100371.55
2019-01-15T08:25:20.931Z,100366.02
2019-01-15T08:27:48.570Z,100370.05
2019-01-15T08:30:18.523Z,100372.11
2019-01-15T08:32:46.050Z,100364.77
2019-01-15T08:35:14.173Z,100363.13
2019-01-15T08:37:41.599Z,100359.88
2019-01-15T08:40:10.258Z,100359.81
2019-01-15T08:42:37.719Z,100361.18
2019-01-15T08:45:06.088Z,100373.66
2019-01-15T08:47:36.269Z,100375.96
2019-01-15T08:50:06.262Z,100350.70
2019-01-15T08:52:33.818Z,100360.11
2019-01-15T08:55:01.339Z,100357.80
2019-01-15T08:57:28.859Z,100351.44
2019-01-15T08:59:56.500Z,100361.12
2019-01-15T09:02:23.968Z,100349.09
2019-01-15T09:04:51.471Z,100354.98
2019-01-15T09:07:18.883Z,100359.57
2019-01-15T09:09:47.520Z,100355.85
2019-01-15T09:12:14.988Z,100363.48
2019-01-15T09:14:42.539Z,100363.84
2019-01-15T09:17:11.128Z,100355.56
2019-01-15T09:19:38.858Z,100350.17
2019-01-15T09:22:06.258Z,100348.98
2019-01-15T09:24:33.768Z,100352.41
2019-01-15T09:27:01.203Z,100354.19
2019-01-15T09:29:28.948Z,100341.75
2019-01-15T09:31:56.441Z,100337.41
2019-01-15T09:34:23.853Z,100353.33
2019-01-15T09:36:51.420Z,100343.56
2019-01-15T09:39:18.943Z,100345.37
2019-01-15T09:41:46.423Z,100347.76
2019-01-15T09:44:13.898Z,100343.30
2019-01-15T09:46:41.408Z,100336.83
2019-01-15T09:49:08.883Z,100336.43
2019-01-15T09:51:38.793Z,100342.58
2019-01-15T09:54:06.273Z,100343.91
2019-01-15T09:56:33.728Z,100338.96
2019-01-15T09:59:01.233Z,100336.20
2019-01-15T10:01:28.914Z,100339.27
2019-01-15T10:03:59.213Z,100332.20
2019-01-15T10:06:26.760Z,100329.23
2019-01-15T10:08:54.186Z,100332.97
2019-01-15T10:11:21.648Z,100329.62
2019-01-15T10:13:51.339Z,100337.05
2019-01-15T10:16:18.874Z,100334.93
2019-01-15T10:18:46.816Z,100327.20
2019-01-15T10:21:14.413Z,100329.62
2019-01-15T10:23:42.283Z,100330.92
2019-01-15T10:26:09.789Z,100321.78
2019-01-15T10:28:37.514Z,100318.16
2019-01-15T10:31:47.170Z,100324.67
2019-01-15T10:34:21.088Z,100322.71
2019-01-15T10:36:47.443Z,100316.59
2019-01-15T10:39:17.628Z,100316.10
2019-01-15T10:41:45.124Z,100308.84
2019-01-15T10:44:12.615Z,100308.86
2019-01-15T10:46:41.333Z,100298.70
2019-01-15T10:49:08.804Z,100307.75
2019-01-15T10:51:38.819Z,100305.98
2019-01-15T10:54:09.093Z,100304.48
2019-01-15T10:56:36.693Z,100305.95
2019-01-15T10:59:04.378Z,100290.78
2019-01-15T11:01:32.136Z,100297.78
2019-01-15T11:03:59.792Z,100296.94
2019-01-15T11:06:27.414Z,100298.53
2019-01-15T11:08:54.958Z,100291.42
2019-01-15T11:11:22.482Z,100282.10
2019-01-15T11:13:49.948Z,100282.30
2019-01-15T11:16:17.383Z,100279.77
2019-01-15T11:18:44.868Z,100274.75
2019-01-15T11:21:12.349Z,100275.94
2019-01-15T11:23:39.807Z,100269.70
2019-01-15T11:26:07.466Z,100268.87
2019-01-15T11:28:35.040Z,100265.87
2019-01-15T11:31:02.475Z,100264.88
2019-01-15T11:33:30.318Z,100264.56
2019-01-15T11:35:57.936Z,100260.57
2019-01-15T11:38:25.690Z,100266.14
2019-01-15T11:40:53.471Z,100256.17
2019-01-15T11:43:21.209Z,100259.90
2019-01-15T11:45:48.793Z,100252.46
2019-01-15T11:48:16.389Z,100252.07
2019-01-15T11:50:44.219Z,100247.67
2019-01-15T11:53:12.470Z,100244.33
2019-01-15T11:55:40.451Z,100231.95
2019-01-15T11:58:08.089Z,100236.14
2019-01-15T12:01:10.211Z,100240.69
2019-01-15T12:04:03.251Z,100234.75
2019-01-15T12:07:05.801Z,100234.75
2019-01-15T12:09:58.992Z,100230.25
2019-01-15T12:12:44.511Z,100225.98
2019-01-15T12:15:36.510Z,100216.37
2019-01-15T12:18:14.971Z,100212.05
2019-01-15T12:21:04.750Z,100211.61
2019-01-15T12:23:52.570Z,100221.73
2019-01-15T12:26:31.438Z,100224.90
2019-01-15T12:29:17.198Z,100217.41
2019-01-15T12:31:53.951Z,100225.98
2019-01-15T12:34:59.393Z,100221.16
2019-01-15T12:37:46.971Z,100214.69
2019-01-15T12:40:44.683Z,100218.56
2019-01-15T12:43:30.470Z,100214.36
2019-01-15T12:46:16.391Z,100203.53
2019-01-15T12:49:02.132Z,100216.84
2019-01-15T12:51:39.711Z,100209.49
2019-01-15T12:54:42.140Z,100205.94
2019-01-15T12:57:38.511Z,100209.92
2019-01-15T13:00:28.310Z,100192.13
2019-01-15T13:03:18.371Z,100197.97
2019-01-15T13:06:04.171Z,100199.05
2019-01-15T13:08:54.192Z,100201.34
2019-01-15T13:11:41.831Z,100195.41
2019-01-15T13:17:19.771Z,100187.18
2019-01-15T13:20:25.053Z,100182.72
2019-01-15T13:23:17.932Z,100177.69
2019-01-15T13:26:17.190Z,100180.37
2019-01-15T13:29:03.171Z,100168.50
2019-01-15T13:32:02.610Z,100167.77
2019-01-15T13:34:56.868Z,100165.54
2019-01-15T13:37:42.725Z,100157.15
2019-01-15T13:43:30.771Z,100154.42
2019-01-15T13:46:27.992Z,100159.34
2019-01-15T13:49:15.199Z,100166.61
2019-01-15T13:52:05.565Z,100147.87
2019-01-15T13:55:04.759Z,100145.91
2019-01-15T13:57:51.822Z,100145.35
2019-01-15T14:00:32.517Z,100138.14
2019-01-15T14:03:18.173Z,100142.63
2019-01-15T14:06:04.072Z,100140.06
2019-01-15T14:09:06.451Z,100128.92
2019-01-15T14:12:18.111Z,100137.10
2019-01-15T14:15:18.170Z,100137.72
2019-01-15T14:18:06.605Z,100144.98
2019-01-15T14:23:55.751Z,100127.16
2019-01-15T14:26:44.531Z,100137.00
2019-01-15T14:29:30.331Z,100131.22
2019-01-15T14:32:16.371Z,100115.19
2019-01-15T14:34:55.423Z,100109.97
2019-01-15T14:37:40.169Z,100123.73
2019-01-15T14:40:37.850Z,100125.91
2019-01-15T14:43:23.671Z,100126.88
2019-01-15T14:46:13.846Z,100136.61
2019-01-15T14:49:06.812Z,100137.70
2019-01-15T14:51:56.880Z,100150.16
2019-01-15T14:54:43.796Z,100143.14
2019-01-15T14:57:37.436Z,100132.43
2019-01-15T15:00:35.871Z,100130.08
2019-01-15T15:03:35.393Z,100134.83
2019-01-15T15:06:13.615Z,100134.00
2019-01-15T15:08:59.758Z,100129.91
2019-01-15T15:11:51.197Z,100133.47
2019-01-15T15:14:47.232Z,100127.30
2019-01-15T15:17:40.031Z,100129.22
2019-01-15T15:20:26.246Z,100125.64
2019-01-15T15:23:18.996Z,100142.88
2019-01-15T15:26:09.141Z,100141.57
2019-01-15T15:28:59.335Z,100138.84
2019-01-15T15:31:46.530Z,100140.00
2019-01-15T15:34:43.625Z,100134.87
2019-01-15T15:37:31.847Z,100135.43
2019-01-15T15:40:34.601Z,100134.60
2019-01-15T15:43:21.616Z,100138.64
2019-01-15T15:46:11.021Z,100150.13
2019-01-15T15:48:56.126Z,100141.30
2019-01-15T15:51:42.317Z,100141.04
2019-01-15T15:54:44.114Z,100141.34
2019-01-15T15:57:26.005Z,100134.08
2019-01-15T16:00:18.246Z,100126.45
2019-01-15T16:03:19.342Z,100126.84
2019-01-15T16:06:08.801Z,100134.91
2019-01-15T16:09:11.700Z,100143.86
2019-01-15T16:11:59.173Z,100143.39
2019-01-15T16:14:49.245Z,100138.43
2019-01-15T16:17:45.210Z,100137.22
2019-01-15T16:20:24.479Z,100126.98
2019-01-15T16:23:14.291Z,100133.51
2019-01-15T16:25:56.386Z,100140.78
2019-01-15T16:28:46.090Z,100142.64
2019-01-15T16:31:31.863Z,100138.38
2019-01-15T16:34:17.461Z,100121.41
2019-01-15T16:37:03.063Z,100119.09
2019-01-15T16:39:48.327Z,100127.19
2019-01-15T16:42:38.126Z,100127.13
2019-01-15T16:45:32.721Z,100129.53
2019-01-15T16:48:18.631Z,100114.44
2019-01-15T16:51:11.610Z,100130.58
2019-01-15T16:54:03.349Z,100119.13
2019-01-15T16:56:42.871Z,100125.09
2019-01-15T16:59:31.316Z,100120.34
2019-01-15T17:02:18.296Z,100114.44
2019-01-15T17:05:14.331Z,100119.83
2019-01-15T17:08:14.045Z,100125.14
2019-01-15T17:10:59.699Z,100118.63
2019-01-15T17:13:48.750Z,100112.92
2019-01-15T17:16:23.732Z,100111.27
2019-01-15T17:20:10.542Z,100116.27
2019-01-15T17:23:01.664Z,100109.95
2019-01-15T17:25:54.735Z,100110.43
2019-01-15T17:28:48.789Z,100108.80
2019-01-15T17:32:42.170Z,100110.17
2019-01-15T17:47:17.349Z,100117.70
2019-01-15T18:14:31.271Z,100118.13
2019-01-15T18:17:24.460Z,100118.86
2019-01-15T18:20:23.585Z,100107.03
2019-01-15T18:23:28.415Z,100111.00
2019-01-15T18:26:13.776Z,100115.09
2019-01-15T18:29:00.721Z,100112.00
2019-01-15T18:31:45.119Z,100109.27
2019-01-15T18:34:31.081Z,100108.61
2019-01-15T18:37:42.620Z,100099.73
2019-01-15T18:41:10.898Z,100107.36
2019-01-15T18:44:12.105Z,100110.67
2019-01-15T18:47:08.265Z,100124.86
2019-01-15T18:49:48.295Z,100124.00
2019-01-15T18:52:57.509Z,100125.05
2019-01-15T18:56:10.210Z,100123.33
2019-01-15T18:59:15.620Z,100120.61
2019-01-15T19:02:15.634Z,100112.42
2019-01-15T19:05:13.499Z,100120.77
2019-01-15T19:08:02.650Z,100112.34
2019-01-15T19:11:08.290Z,100119.34
2019-01-15T19:14:05.030Z,100094.78
2019-01-15T19:17:32.244Z,100115.36
2019-01-15T19:20:52.052Z,100131.48
2019-01-15T19:23:48.261Z,100125.82
2019-01-15T19:33:25.821Z,100121.14
2019-01-15T19:39:43.468Z,100124.02
2019-01-15T19:59:12.516Z,100123.95
2019-01-15T20:14:26.697Z,100133.15
2019-01-15T20:37:50.326Z,100136.91
2019-01-15T20:40:36.206Z,100139.06
2019-01-15T20:43:29.011Z,100145.32
2019-01-15T20:46:21.493Z,100146.81
2019-01-15T20:49:07.809Z,100137.29
2019-01-15T20:51:53.578Z,100150.13
2019-01-15T20:54:28.437Z,100151.55
2019-01-15T20:57:14.282Z,100136.38
2019-01-15T21:00:01.326Z,100139.69
2019-01-15T21:03:03.803Z,100147.70
2019-01-15T21:05:56.772Z,100148.11
2019-01-15T21:08:52.952Z,100144.35
2019-01-15T21:11:41.731Z,100145.57
2019-01-15T21:14:29.010Z,100143.25
2019-01-15T21:17:15.161Z,100139.69
2019-01-15T21:20:06.895Z,100144.47
2019-01-15T21:22:59.302Z,100132.52
2019-01-15T21:30:02.201Z,100124.43
2019-01-15T21:32:59.561Z,100137.47
2019-01-15T21:36:01.152Z,100133.77
2019-01-15T21:49:04.766Z,100138.03
2019-01-15T21:52:03.498Z,100137.41
2019-01-15T21:55:09.862Z,100141.20
2019-01-15T22:01:36.161Z,100133.56
2019-01-15T23:08:40.956Z,100127.82
2019-01-15T23:11:20.912Z,100118.13
2019-01-15T23:16:45.562Z,100106.81
2019-01-15T23:19:31.187Z,100108.59
2019-01-15T23:22:18.114Z,100105.25
2019-01-15T23:24:57.271Z,100110.73
2019-01-15T23:27:50.006Z,100111.03
2019-01-15T23:30:32.451Z,100111.21
2019-01-15T23:33:25.756Z,100105.72
2019-01-15T23:36:12.722Z,100106.08
2019-01-15T23:39:17.796Z,100099.84
2019-01-15T23:42:03.001Z,100092.85
2019-01-15T23:44:52.992Z,100095.38
2019-01-15T23:47:38.331Z,100090.23
2019-01-15T23:50:45.473Z,100085.11
2019-01-15T23:53:33.893Z,100084.36
2019-01-15T23:56:20.879Z,100082.02
2019-01-15T23:59:00.639Z,100082.50
